Time;durP1;ratioP1;P1;durP2;ratioP2;P2;SDS_P1;SDS_P2;PMS_P1;PMS_P2;Temp;Humidity;BMP_temperature;BMP_pressure;BME280_temperature;BME280_humidity;BME280_pressure;Samples;Min_cycle;Max_cycle;Signal;HPM_P1;HPM_P2
2021/11/16 00:04:14;;;;;;;25.27;9.80;;;;;;;;;;10255842;28;20442;-61
2021/11/16 00:09:12;;;;;;;21.17;9.93;;;;;;;;;;10248685;28;20521;-62
2021/11/16 00:14:09;;;;;;;21.57;9.03;;;;;;;;;;10238543;28;20129;-60
2021/11/16 00:19:11;;;;;;;26.75;9.48;;;;;;;;;;10253175;28;20041;-61
2021/11/16 00:24:13;;;;;;;17.98;7.97;;;;;;;;;;10248659;28;20512;-60
2021/11/16 00:29:10;;;;;;;24.92;10.85;;;;;;;;;;10245907;28;20034;-60
2021/11/16 00:34:08;;;;;;;28.15;11.50;;;;;;;;;;10238347;28;20044;-62
2021/11/16 00:39:05;;;;;;;27.83;9.30;;;;;;;;;;10243577;28;20034;-63
2021/11/16 00:44:03;;;;;;;24.53;9.63;;;;;;;;;;10208511;28;20058;-63
2021/11/16 00:49:00;;;;;;;27.87;10.00;;;;;;;;;;10195411;28;20117;-62
2021/11/16 00:53:57;;;;;;;33.90;10.00;;;;;;;;;;10247031;28;20103;-63
2021/11/16 00:58:55;;;;;;;23.23;7.77;;;;;;;;;;10231630;28;20025;-61
2021/11/16 01:03:52;;;;;;;29.13;9.83;;;;;;;;;;10254987;28;20165;-59
2021/11/16 01:08:49;;;;;;;27.03;9.00;;;;;;;;;;10234638;28;20566;-60
2021/11/16 01:13:47;;;;;;;23.50;9.93;;;;;;;;;;10248865;28;20389;-59
2021/11/16 01:18:44;;;;;;;31.23;10.27;;;;;;;;;;10236421;28;20041;-57
2021/11/16 01:23:42;;;;;;;28.77;10.80;;;;;;;;;;10236919;28;20042;-57
2021/11/16 01:28:39;;;;;;;19.48;6.88;;;;;;;;;;10238347;28;20046;-60
2021/11/16 01:33:41;;;;;;;24.70;7.70;;;;;;;;;;10244585;28;20041;-59
2021/11/16 01:38:40;;;;;;;29.33;10.77;;;;;;;;;;10238007;28;20038;-58
2021/11/16 01:43:37;;;;;;;24.67;10.60;;;;;;;;;;10242032;28;20568;-60
2021/11/16 01:48:36;;;;;;;18.65;7.97;;;;;;;;;;10250694;28;20388;-59
2021/11/16 01:53:35;;;;;;;27.15;9.48;;;;;;;;;;10248475;28;20471;-58
2021/11/16 01:58:33;;;;;;;15.25;7.38;;;;;;;;;;10244840;28;20030;-57
2021/11/16 02:03:31;;;;;;;19.30;6.50;;;;;;;;;;10232693;28;20030;-60
2021/11/16 02:08:28;;;;;;;20.33;9.07;;;;;;;;;;10250713;28;20027;-58
2021/11/16 02:13:25;;;;;;;11.27;4.80;;;;;;;;;;10230021;28;20365;-58
2021/11/16 02:18:23;;;;;;;14.30;5.10;;;;;;;;;;10214963;28;20084;-58
2021/11/16 02:23:20;;;;;;;16.93;8.10;;;;;;;;;;10216861;28;20098;-59
2021/11/16 02:28:18;;;;;;;13.83;6.57;;;;;;;;;;10200116;28;20035;-59
2021/11/16 02:33:16;;;;;;;12.80;5.13;;;;;;;;;;10205793;28;20054;-59
2021/11/16 02:38:15;;;;;;;21.75;11.13;;;;;;;;;;10227586;28;20049;-59
2021/11/16 02:43:12;;;;;;;30.45;10.40;;;;;;;;;;10250358;28;20041;-58
2021/11/16 02:48:13;;;;;;;26.67;9.80;;;;;;;;;;10237966;28;20368;-59
2021/11/16 02:53:10;;;;;;;23.55;9.63;;;;;;;;;;10251626;28;20543;-58
2021/11/16 02:58:09;;;;;;;22.35;10.05;;;;;;;;;;10233258;28;20030;-59
2021/11/16 03:03:06;;;;;;;14.57;7.00;;;;;;;;;;10238574;28;20035;-59
2021/11/16 03:08:18;;;;;;;20.50;9.13;;;;;;;;;;10243314;28;20431;-61
2021/11/16 03:13:15;;;;;;;22.25;7.00;;;;;;;;;;10236094;28;20034;-62
2021/11/16 03:18:13;;;;;;;10.15;5.05;;;;;;;;;;10244407;28;20034;-62
2021/11/16 03:23:18;;;;;;;15.03;7.07;;;;;;;;;;10241209;28;20033;-62
2021/11/16 03:28:17;;;;;;;19.73;8.30;;;;;;;;;;10249201;28;20519;-61
2021/11/16 03:33:16;;;;;;;12.13;5.93;;;;;;;;;;10250622;28;20384;-63
2021/11/16 03:38:13;;;;;;;;;;;;;;;;;;10233548;28;20663;-62
2021/11/16 03:43:11;;;;;;;8.98;5.10;;;;;;;;;;10199236;28;19928;-61
2021/11/16 03:48:08;;;;;;;22.20;10.10;;;;;;;;;;10234250;28;20099;-60
2021/11/16 03:53:06;;;;;;;12.80;5.97;;;;;;;;;;10250183;28;20100;-63
2021/11/16 03:58:04;;;;;;;25.00;7.75;;;;;;;;;;10241344;28;20456;-61
2021/11/16 04:03:02;;;;;;;23.08;8.68;;;;;;;;;;10257071;28;20034;-62
2021/11/16 04:08:00;;;;;;;9.82;5.15;;;;;;;;;;10257793;28;20034;-61
2021/11/16 04:12:57;;;;;;;22.07;8.67;;;;;;;;;;10258821;28;20038;-61
2021/11/16 04:17:56;;;;;;;9.73;6.03;;;;;;;;;;10249832;28;20044;-62
2021/11/16 04:22:53;;;;;;;13.90;6.88;;;;;;;;;;10255615;28;20045;-61
2021/11/16 04:27:51;;;;;;;20.83;10.50;;;;;;;;;;10239639;28;20030;-61
2021/11/16 04:32:50;;;;;;;17.08;7.43;;;;;;;;;;10258563;28;20060;-60
2021/11/16 04:37:50;;;;;;;9.60;6.25;;;;;;;;;;10250008;28;20041;-61
2021/11/16 04:42:47;;;;;;;23.60;8.82;;;;;;;;;;10252168;28;20096;-61
2021/11/16 04:48:07;;;;;;;8.98;4.85;;;;;;;;;;10262953;28;20087;-60
2021/11/16 05:03:31;;;;;;;18.00;6.38;;;;;;;;;;10215174;28;20038;-63
2021/11/16 05:08:28;;;;;;;14.93;6.50;;;;;;;;;;10213074;28;20041;-62
2021/11/16 05:13:26;;;;;;;18.03;6.87;;;;;;;;;;10220593;28;20440;-61
2021/11/16 05:18:23;;;;;;;18.00;7.73;;;;;;;;;;10234008;28;20033;-62
2021/11/16 05:23:20;;;;;;;19.83;7.40;;;;;;;;;;10259424;28;20038;-61
2021/11/16 05:28:18;;;;;;;12.20;5.50;;;;;;;;;;10245144;28;20038;-60
2021/11/16 05:33:16;;;;;;;28.67;11.48;;;;;;;;;;10251261;28;20041;-60
2021/11/16 05:38:23;;;;;;;8.80;4.47;;;;;;;;;;10250200;28;20038;-59
2021/11/16 05:43:20;;;;;;;20.15;8.68;;;;;;;;;;10256391;28;20049;-60
2021/11/16 05:48:21;;;;;;;20.60;9.23;;;;;;;;;;10260015;28;20045;-59
2021/11/16 05:53:18;;;;;;;13.35;6.22;;;;;;;;;;10259951;28;20040;-61
2021/11/16 05:58:17;;;;;;;10.90;4.83;;;;;;;;;;10245706;28;20065;-61
2021/11/16 06:03:15;;;;;;;16.00;7.25;;;;;;;;;;10198521;28;20109;-63
2021/11/16 06:08:25;;;;;;;23.90;8.82;;;;;;;;;;10198588;28;20042;-61
2021/11/16 06:13:23;;;;;;;21.40;9.98;;;;;;;;;;10247241;28;20196;-60
2021/11/16 06:18:21;;;;;;;23.77;9.70;;;;;;;;;;10242774;28;20034;-59
2021/11/16 06:23:19;;;;;;;24.05;10.43;;;;;;;;;;10258299;28;20046;-59
2021/11/16 06:28:16;;;;;;;26.70;11.67;;;;;;;;;;10244692;28;20042;-63
2021/11/16 06:33:19;;;;;;;26.77;10.57;;;;;;;;;;10228328;28;20566;-59
2021/11/16 06:38:16;;;;;;;22.95;9.05;;;;;;;;;;10244739;28;20066;-60
2021/11/16 06:43:20;;;;;;;26.53;10.37;;;;;;;;;;10233482;28;20124;-61
2021/11/16 06:48:18;;;;;;;29.15;10.25;;;;;;;;;;10235004;28;20034;-59
2021/11/16 06:53:25;;;;;;;28.70;12.03;;;;;;;;;;10255138;28;20030;-62
2021/11/16 06:58:23;;;;;;;24.83;9.70;;;;;;;;;;10242091;28;20276;-62
2021/11/16 07:03:22;;;;;;;19.73;8.73;;;;;;;;;;10240107;28;20030;-61
2021/11/16 07:08:29;;;;;;;28.13;10.55;;;;;;;;;;10237868;28;20038;-59
2021/11/16 07:13:26;;;;;;;18.85;7.93;;;;;;;;;;10243607;28;20042;-60
2021/11/16 07:18:24;;;;;;;26.07;9.47;;;;;;;;;;10249680;28;20410;-60
2021/11/16 07:23:22;;;;;;;10.10;6.63;;;;;;;;;;10243539;28;20040;-63
2021/11/16 07:28:20;;;;;;;23.90;10.27;;;;;;;;;;10242578;28;20034;-59
2021/11/16 07:33:20;;;;;;;;;;;;;;;;;;10231315;28;20396;-59
2021/11/16 07:38:21;;;;;;;20.35;9.45;;;;;;;;;;10230843;28;20004;-60
2021/11/16 07:43:19;;;;;;;22.42;10.45;;;;;;;;;;10248294;28;20033;-61
2021/11/16 07:48:18;;;;;;;27.42;9.50;;;;;;;;;;10249102;28;20049;-61
2021/11/16 07:53:33;;;;;;;21.35;8.70;;;;;;;;;;10261243;28;20038;-61
2021/11/16 07:58:34;;;;;;;24.48;12.27;;;;;;;;;;10249131;28;20042;-60
2021/11/16 08:03:37;;;;;;;20.65;8.18;;;;;;;;;;10244951;28;20041;-59
2021/11/16 08:08:40;;;;;;;19.38;7.70;;;;;;;;;;10244383;28;20073;-61
2021/11/16 08:13:48;;;;;;;22.05;9.10;;;;;;;;;;10245736;28;20065;-60
2021/11/16 08:18:52;;;;;;;17.33;7.88;;;;;;;;;;10239702;28;20088;-63
2021/11/16 08:23:58;;;;;;;17.70;8.38;;;;;;;;;;10244737;28;20040;-63
2021/11/16 08:28:56;;;;;;;25.50;8.88;;;;;;;;;;10251490;28;20342;-60
2021/11/16 08:33:54;;;;;;;24.95;9.77;;;;;;;;;;10253180;28;20561;-63
2021/11/16 08:38:54;;;;;;;25.95;9.45;;;;;;;;;;10245283;28;20034;-58
2021/11/16 08:43:52;;;;;;;26.35;10.60;;;;;;;;;;10255079;28;20034;-61
2021/11/16 08:48:51;;;;;;;18.53;7.80;;;;;;;;;;10239788;28;20559;-65
2021/11/16 08:53:49;;;;;;;23.85;9.32;;;;;;;;;;10235473;28;20041;-61
2021/11/16 08:58:47;;;;;;;23.70;8.10;;;;;;;;;;10211210;28;20054;-61
2021/11/16 09:03:45;;;;;;;18.17;7.67;;;;;;;;;;10225874;28;20108;-61
2021/11/16 09:08:43;;;;;;;20.85;8.38;;;;;;;;;;10247909;28;20057;-61
2021/11/16 09:13:41;;;;;;;16.50;8.03;;;;;;;;;;10222748;28;20034;-62
2021/11/16 09:18:43;;;;;;;25.98;9.65;;;;;;;;;;10226131;28;20034;-62
2021/11/16 09:23:48;;;;;;;23.80;9.82;;;;;;;;;;10231594;28;20121;-62
2021/11/16 09:28:51;;;;;;;16.05;7.28;;;;;;;;;;10221562;28;20038;-63
2021/11/16 09:33:49;;;;;;;18.10;9.13;;;;;;;;;;10205512;28;20478;-62
2021/11/16 09:38:53;;;;;;;12.48;6.18;;;;;;;;;;10243150;28;20110;-63
2021/11/16 09:44:03;;;;;;;15.05;5.40;;;;;;;;;;10223757;28;20044;-63
2021/11/16 09:49:02;;;;;;;9.02;4.00;;;;;;;;;;10234725;28;20053;-61
2021/11/16 09:54:04;;;;;;;10.80;5.18;;;;;;;;;;10236284;28;20041;-62
2021/11/16 09:59:02;;;;;;;17.67;6.63;;;;;;;;;;10246337;28;20022;-62
2021/11/16 10:04:09;;;;;;;8.93;3.65;;;;;;;;;;10225847;28;20511;-62
2021/11/16 10:09:06;;;;;;;19.75;8.02;;;;;;;;;;10243562;28;20037;-61
2021/11/16 10:14:04;;;;;;;19.33;6.53;;;;;;;;;;10247387;28;20041;-62
2021/11/16 10:19:02;;;;;;;17.40;8.10;;;;;;;;;;10224429;28;20040;-62
2021/11/16 10:24:00;;;;;;;16.90;7.33;;;;;;;;;;10245897;28;20038;-61
2021/11/16 10:28:58;;;;;;;;;;;;;;;;;;10239465;28;20312;-61
2021/11/16 10:33:56;;;;;;;22.52;8.57;;;;;;;;;;10229075;28;20374;-61
2021/11/16 10:38:59;;;;;;;23.30;8.27;;;;;;;;;;10237444;28;20562;-62
2021/11/16 10:44:01;;;;;;;25.77;8.20;;;;;;;;;;10216232;28;20038;-61
2021/11/16 10:49:01;;;;;;;23.88;10.02;;;;;;;;;;10213284;28;20030;-63
2021/11/16 10:53:59;;;;;;;23.00;9.93;;;;;;;;;;10233848;28;20045;-61
2021/11/16 10:59:10;;;;;;;19.48;8.98;;;;;;;;;;10240834;28;20038;-62
2021/11/16 11:04:10;;;;;;;25.33;9.73;;;;;;;;;;10239906;28;20411;-62
2021/11/16 11:09:08;;;;;;;22.70;8.88;;;;;;;;;;10236068;28;20099;-60
2021/11/16 11:14:08;;;;;;;21.90;9.03;;;;;;;;;;10238280;28;20096;-63
2021/11/16 11:19:07;;;;;;;26.67;10.60;;;;;;;;;;10211684;28;20030;-61
2021/11/16 11:24:07;;;;;;;24.30;8.88;;;;;;;;;;10212758;28;20120;-60
2021/11/16 11:34:37;;;;;;;12.33;5.37;;;;;;;;;;10205801;28;20130;-61
2021/11/16 11:39:35;;;;;;;22.63;9.73;;;;;;;;;;10225915;28;20499;-62
2021/11/16 11:44:41;;;;;;;9.30;5.30;;;;;;;;;;10237612;28;20429;-63
2021/11/16 11:49:39;;;;;;;24.90;10.07;;;;;;;;;;10246683;28;20269;-61
2021/11/16 11:54:37;;;;;;;24.25;8.80;;;;;;;;;;10216763;28;20257;-62
2021/11/16 11:59:35;;;;;;;12.93;6.23;;;;;;;;;;10215145;28;20033;-61
2021/11/16 12:04:33;;;;;;;17.03;8.27;;;;;;;;;;10240267;28;20033;-62
2021/11/16 12:09:31;;;;;;;27.05;11.63;;;;;;;;;;10219681;28;20336;-61
2021/11/16 12:14:32;;;;;;;27.05;11.55;;;;;;;;;;10236186;28;20508;-63
2021/11/16 12:19:47;;;;;;;29.38;12.25;;;;;;;;;;10218056;28;20045;-60
2021/11/16 12:24:47;;;;;;;35.80;14.35;;;;;;;;;;10240964;28;20103;-62
2021/11/16 12:29:45;;;;;;;37.22;15.15;;;;;;;;;;10215473;28;20033;-62
2021/11/16 12:34:48;;;;;;;19.70;8.05;;;;;;;;;;10229665;28;20037;-62
2021/11/16 12:39:56;;;;;;;31.65;12.90;;;;;;;;;;10236037;28;20084;-62
2021/11/16 12:45:00;;;;;;;36.88;14.85;;;;;;;;;;10223450;28;20045;-62
2021/11/16 12:50:14;;;;;;;26.70;12.40;;;;;;;;;;10234222;28;20252;-62
2021/11/16 12:55:15;;;;;;;39.20;14.45;;;;;;;;;;10239010;28;20125;-61
2021/11/16 13:00:12;;;;;;;30.67;12.75;;;;;;;;;;10231465;28;20045;-62
2021/11/16 13:05:11;;;;;;;44.50;18.90;;;;;;;;;;10241281;28;20033;-61
2021/11/16 13:10:19;;;;;;;15.23;6.80;;;;;;;;;;10210933;28;20069;-62
2021/11/16 13:15:36;;;;;;;30.48;12.93;;;;;;;;;;10215318;28;20047;-61
2021/11/16 13:20:38;;;;;;;25.73;8.98;;;;;;;;;;10234545;28;20045;-59
2021/11/16 13:25:49;;;;;;;26.98;10.68;;;;;;;;;;10230585;28;20442;-60
2021/11/16 13:30:47;;;;;;;21.05;6.60;;;;;;;;;;10236099;28;20115;-60
2021/11/16 13:36:03;;;;;;;21.33;9.03;;;;;;;;;;10223869;28;20034;-62
2021/11/16 13:41:02;;;;;;;14.95;6.32;;;;;;;;;;10211389;28;20486;-59
2021/11/16 13:46:12;;;;;;;22.08;9.00;;;;;;;;;;10205653;28;20030;-62
2021/11/16 13:51:09;;;;;;;31.92;10.90;;;;;;;;;;10179702;28;20058;-62
2021/11/16 13:56:14;;;;;;;24.77;10.10;;;;;;;;;;10189741;28;20052;-62
2021/11/16 14:01:13;;;;;;;29.23;10.75;;;;;;;;;;10209063;28;20529;-63
2021/11/16 14:06:18;;;;;;;26.63;11.13;;;;;;;;;;10205914;28;20061;-59
2021/11/16 14:11:17;;;;;;;40.58;14.95;;;;;;;;;;10207464;28;20108;-58
2021/11/16 14:16:17;;;;;;;20.80;8.13;;;;;;;;;;10188880;28;20057;-61
2021/11/16 14:21:16;;;;;;;25.87;11.70;;;;;;;;;;10227259;28;20510;-60
2021/11/16 14:26:20;;;;;;;21.58;9.13;;;;;;;;;;10211895;28;20037;-62
2021/11/16 14:31:19;;;;;;;21.02;8.52;;;;;;;;;;10228397;28;20511;-61
2021/11/16 14:36:17;;;;;;;32.30;13.15;;;;;;;;;;10206291;28;20050;-59
2021/11/16 14:41:19;;;;;;;37.13;13.63;;;;;;;;;;10241388;28;20403;-58
2021/11/16 14:46:18;;;;;;;23.67;8.52;;;;;;;;;;10222647;28;20046;-58
2021/11/16 14:56:20;;;;;;;31.30;11.47;;;;;;;;;;10203122;28;20163;-58
2021/11/16 15:01:18;;;;;;;36.47;14.10;;;;;;;;;;10207327;28;20033;-58
2021/11/16 15:06:19;;;;;;;44.60;16.60;;;;;;;;;;10235568;28;20562;-58
2021/11/16 15:11:21;;;;;;;17.20;8.80;;;;;;;;;;10210000;28;20495;-59
2021/11/16 15:16:19;;;;;;;13.90;6.22;;;;;;;;;;10223857;28;20121;-60
2021/11/16 15:21:29;;;;;;;36.13;14.23;;;;;;;;;;10122792;22;20075;-62
2021/11/16 15:26:27;;;;;;;38.83;11.93;;;;;;;;;;10203484;28;20741;-62
2021/11/16 15:31:25;;;;;;;36.50;14.30;;;;;;;;;;10223228;28;20069;-62
2021/11/16 15:36:23;;;;;;;32.37;13.60;;;;;;;;;;10225064;28;20046;-61
2021/11/16 15:41:20;;;;;;;;;;;;;;;;;;10223845;28;20038;-60
2021/11/16 15:46:27;;;;;;;8.23;4.93;;;;;;;;;;10243309;28;19914;-63
2021/11/16 16:01:47;;;;;;;25.75;10.25;;;;;;;;;;10195433;22;20535;-62
2021/11/16 16:06:44;;;;;;;8.97;4.20;;;;;;;;;;10176254;28;20061;-62
2021/11/16 16:11:50;;;;;;;24.03;9.73;;;;;;;;;;10104094;28;20062;-62
2021/11/16 16:16:48;;;;;;;42.30;14.02;;;;;;;;;;10177731;28;20043;-63
2021/11/16 16:21:47;;;;;;;31.17;13.53;;;;;;;;;;10179637;28;20034;-62
2021/11/16 16:26:44;;;;;;;19.80;7.47;;;;;;;;;;10154071;28;20519;-63
2021/11/16 16:31:44;;;;;;;20.13;8.13;;;;;;;;;;10179277;23;20061;-61
2021/11/16 16:36:43;;;;;;;28.00;11.52;;;;;;;;;;10162110;28;20121;-62
2021/11/16 16:41:40;;;;;;;23.63;9.43;;;;;;;;;;10182449;28;20035;-63
2021/11/16 16:46:39;;;;;;;29.80;11.37;;;;;;;;;;10143778;28;20440;-62
2021/11/16 16:51:38;;;;;;;27.88;8.55;;;;;;;;;;10167686;28;20046;-62
2021/11/16 16:56:35;;;;;;;;;;;;;;;;;;10146565;28;20109;-62
2021/11/16 17:01:33;;;;;;;12.68;5.93;;;;;;;;;;10137725;28;19977;-62
2021/11/16 17:06:33;;;;;;;41.70;19.37;;;;;;;;;;10228281;22;20054;-62
2021/11/16 17:11:31;;;;;;;20.30;6.88;;;;;;;;;;10165490;28;20030;-61
2021/11/16 17:16:29;;;;;;;22.10;7.95;;;;;;;;;;10170856;28;20046;-62
2021/11/16 17:21:27;;;;;;;;;;;;;;;;;;10167929;28;20054;-61
2021/11/16 17:26:25;;;;;;;20.80;6.22;;;;;;;;;;10177613;28;19913;-61
2021/11/16 17:31:22;;;;;;;14.23;5.53;;;;;;;;;;10197978;28;20038;-61
2021/11/16 17:36:20;;;;;;;11.00;5.80;;;;;;;;;;10208514;28;20050;-65
2021/11/16 17:41:17;;;;;;;19.67;6.80;;;;;;;;;;10205049;28;20045;-60
2021/11/16 17:46:16;;;;;;;12.63;5.97;;;;;;;;;;10154097;28;20085;-61
2021/11/16 17:51:13;;;;;;;8.13;2.85;;;;;;;;;;10152600;28;20360;-62
2021/11/16 17:56:11;;;;;;;17.43;5.97;;;;;;;;;;10190475;28;20035;-63
2021/11/16 18:01:10;;;;;;;13.47;5.93;;;;;;;;;;10194575;28;20047;-62
2021/11/16 18:06:19;;;;;;;10.35;5.70;;;;;;;;;;10203856;28;20042;-64
2021/11/16 18:11:17;;;;;;;27.38;9.80;;;;;;;;;;10199871;28;20049;-61
2021/11/16 18:16:15;;;;;;;19.13;10.90;;;;;;;;;;10209048;28;20393;-62
2021/11/16 18:21:19;;;;;;;51.17;19.17;;;;;;;;;;10198223;28;20037;-61
2021/11/16 18:26:18;;;;;;;38.58;15.98;;;;;;;;;;10178333;28;20105;-60
2021/11/16 18:31:17;;;;;;;24.92;10.25;;;;;;;;;;10203262;28;20049;-60
2021/11/16 18:36:16;;;;;;;15.38;6.40;;;;;;;;;;10195747;28;20261;-62
2021/11/16 18:41:18;;;;;;;12.32;5.93;;;;;;;;;;10197905;28;20062;-63
2021/11/16 18:46:20;;;;;;;20.88;7.78;;;;;;;;;;10176731;28;20385;-61
2021/11/16 18:51:18;;;;;;;20.00;9.18;;;;;;;;;;10196753;28;20039;-63
2021/11/16 18:56:27;;;;;;;13.43;6.30;;;;;;;;;;10197473;28;20046;-61
2021/11/16 19:01:25;;;;;;;14.38;5.60;;;;;;;;;;10192560;28;20046;-62
2021/11/16 19:06:22;;;;;;;11.90;5.72;;;;;;;;;;10179728;28;20045;-61
2021/11/16 19:11:20;;;;;;;16.80;4.63;;;;;;;;;;10195807;28;20089;-62
2021/11/16 19:16:18;;;;;;;7.63;3.80;;;;;;;;;;10200351;28;20562;-62
2021/11/16 19:21:16;;;;;;;18.40;7.33;;;;;;;;;;10196344;28;20320;-62
2021/11/16 19:26:13;;;;;;;17.90;7.25;;;;;;;;;;10194312;28;20365;-61
2021/11/16 19:31:12;;;;;;;7.90;3.43;;;;;;;;;;10174468;28;20035;-62
2021/11/16 19:36:12;;;;;;;10.02;4.90;;;;;;;;;;10203519;28;20046;-62
2021/11/16 19:41:11;;;;;;;7.53;3.53;;;;;;;;;;10185197;28;20228;-62
2021/11/16 19:46:09;;;;;;;10.63;5.93;;;;;;;;;;10183827;28;20038;-61
2021/11/16 19:51:06;;;;;;;16.20;5.67;;;;;;;;;;10200802;28;20428;-60
2021/11/16 19:56:04;;;;;;;12.13;5.67;;;;;;;;;;10211621;28;20052;-61
2021/11/16 20:01:02;;;;;;;10.10;5.10;;;;;;;;;;10169525;28;20578;-62
2021/11/16 20:06:00;;;;;;;10.50;5.27;;;;;;;;;;10201665;28;20039;-61
2021/11/16 20:11:00;;;;;;;11.25;5.70;;;;;;;;;;10199075;28;20512;-60
2021/11/16 20:15:58;;;;;;;8.88;3.78;;;;;;;;;;10203845;28;20052;-61
2021/11/16 20:20:55;;;;;;;12.47;5.33;;;;;;;;;;10184714;28;20046;-62
2021/11/16 20:25:53;;;;;;;7.70;4.77;;;;;;;;;;10200428;28;20042;-63
2021/11/16 20:31:00;;;;;;;12.30;5.23;;;;;;;;;;10182539;28;20053;-62
2021/11/16 20:36:09;;;;;;;13.07;5.20;;;;;;;;;;10201056;28;20050;-60
2021/11/16 20:41:20;;;;;;;10.02;4.40;;;;;;;;;;10204454;28;20045;-61
2021/11/16 20:46:45;;;;;;;8.60;4.07;;;;;;;;;;10185629;28;20058;-60
2021/11/16 21:02:16;;;;;;;8.80;3.85;;;;;;;;;;10194706;28;20488;-59
2021/11/16 21:07:14;;;;;;;9.33;4.60;;;;;;;;;;10184635;28;20411;-60
2021/11/16 21:12:11;;;;;;;10.00;4.43;;;;;;;;;;10182911;28;20046;-62
2021/11/16 21:17:09;;;;;;;8.53;3.43;;;;;;;;;;10200721;28;20042;-59
2021/11/16 21:22:07;;;;;;;7.57;3.17;;;;;;;;;;10198505;28;20034;-61
2021/11/16 21:27:07;;;;;;;8.75;3.63;;;;;;;;;;10198462;28;20057;-59
2021/11/16 21:32:07;;;;;;;5.53;2.10;;;;;;;;;;10201734;28;20397;-60
2021/11/16 21:37:05;;;;;;;4.97;2.42;;;;;;;;;;10182038;28;20046;-60
2021/11/16 21:42:02;;;;;;;2.95;2.05;;;;;;;;;;10194186;28;20137;-62
2021/11/16 21:47:00;;;;;;;6.73;2.97;;;;;;;;;;10202140;28;20042;-61
2021/11/16 21:51:58;;;;;;;3.53;2.63;;;;;;;;;;10198469;28;20041;-61
2021/11/16 21:56:55;;;;;;;4.90;2.67;;;;;;;;;;10144849;28;20045;-63
2021/11/16 22:01:52;;;;;;;6.83;2.97;;;;;;;;;;10179670;28;20125;-63
2021/11/16 22:06:58;;;;;;;6.63;2.60;;;;;;;;;;10187034;28;20061;-63
2021/11/16 22:11:56;;;;;;;2.92;1.85;;;;;;;;;;10203779;28;20046;-63
2021/11/16 22:16:57;;;;;;;8.07;3.33;;;;;;;;;;10196275;28;20053;-63
2021/11/16 22:21:55;;;;;;;4.72;1.52;;;;;;;;;;10191364;28;20045;-63
2021/11/16 22:26:54;;;;;;;2.00;1.60;;;;;;;;;;10194333;28;20042;-64
2021/11/16 22:31:52;;;;;;;5.20;2.60;;;;;;;;;;10195586;28;20410;-63
2021/11/16 22:36:50;;;;;;;4.93;2.28;;;;;;;;;;10172320;28;20076;-63
2021/11/16 22:41:51;;;;;;;5.77;2.20;;;;;;;;;;10205413;28;20040;-61
2021/11/16 22:46:50;;;;;;;5.93;2.55;;;;;;;;;;10205372;28;20038;-63
2021/11/16 22:51:47;;;;;;;5.70;2.47;;;;;;;;;;10197106;28;20030;-62
2021/11/16 22:56:45;;;;;;;5.30;2.17;;;;;;;;;;10196335;28;20411;-64
